createdAt,value
2019-01-26T00:00:40.014Z,11.93
2019-01-26T00:03:07.453Z,11.47
2019-01-26T00:05:34.967Z,11.97
2019-01-26T00:08:02.249Z,11.13
2019-01-26T00:10:29.506Z,11.23
2019-01-26T00:12:56.998Z,10.77
2019-01-26T00:15:24.280Z,10.30
2019-01-26T00:17:51.562Z,10.73
2019-01-26T00:20:18.809Z,8.70
2019-01-26T00:22:46.338Z,10.30
2019-01-26T00:25:13.596Z,8.83
2019-01-26T00:27:40.926Z,9.40
2019-01-26T00:30:10.001Z,8.73
2019-01-26T00:32:37.249Z,7.93
2019-01-26T00:35:05.458Z,8.03
2019-01-26T00:37:32.730Z,9.03
2019-01-26T00:40:00.302Z,8.10
2019-01-26T00:42:27.583Z,7.80
2019-01-26T00:44:54.856Z,7.20
2019-01-26T00:47:22.390Z,8.60
2019-01-26T00:49:49.909Z,7.10
2019-01-26T00:52:17.430Z,6.90
2019-01-26T00:54:44.767Z,6.20
2019-01-26T00:57:12.033Z,5.70
2019-01-26T00:59:39.340Z,6.20
2019-01-26T01:02:06.682Z,6.57
2019-01-26T01:04:34.033Z,6.40
2019-01-26T01:07:04.017Z,5.83
2019-01-26T01:09:31.293Z,5.60
2019-01-26T01:11:58.555Z,5.90
2019-01-26T01:14:25.911Z,5.00
2019-01-26T01:16:53.222Z,5.07
2019-01-26T01:19:20.517Z,5.07
2019-01-26T01:21:47.782Z,6.30
2019-01-26T01:24:15.158Z,5.30
2019-01-26T01:26:42.430Z,5.57
2019-01-26T01:29:09.986Z,5.30
2019-01-26T01:31:37.225Z,4.93
2019-01-26T01:34:04.536Z,4.97
2019-01-26T01:36:32.073Z,6.10
2019-01-26T01:38:59.601Z,4.40
2019-01-26T01:41:26.922Z,4.93
2019-01-26T01:43:54.869Z,5.20
2019-01-26T01:46:22.221Z,5.80
2019-01-26T01:48:49.461Z,6.33
2019-01-26T01:51:16.726Z,5.70
2019-01-26T01:53:44.066Z,6.50
2019-01-26T01:56:11.675Z,6.43
2019-01-26T01:58:39.075Z,5.57
2019-01-26T02:01:06.338Z,5.40
2019-01-26T02:03:33.852Z,4.93
2019-01-26T02:06:01.121Z,5.30
2019-01-26T02:08:28.371Z,5.10
2019-01-26T02:10:55.605Z,5.57
2019-01-26T02:13:22.870Z,5.13
2019-01-26T02:15:50.112Z,4.87
2019-01-26T02:18:17.383Z,5.47
2019-01-26T02:20:44.625Z,5.27
2019-01-26T02:23:11.974Z,4.70
2019-01-26T02:25:39.248Z,5.60
2019-01-26T02:28:06.490Z,5.87
2019-01-26T02:30:34.050Z,5.70
2019-01-26T02:33:01.323Z,5.23
2019-01-26T02:35:28.835Z,5.40
2019-01-26T02:37:56.076Z,6.70
2019-01-26T02:40:23.585Z,5.90
2019-01-26T02:42:50.859Z,5.60
2019-01-26T02:45:18.175Z,6.27
2019-01-26T02:47:45.500Z,5.90
2019-01-26T02:50:17.064Z,7.20
2019-01-26T02:52:44.665Z,7.00
2019-01-26T02:55:12.371Z,6.33
2019-01-26T02:57:39.646Z,5.80
2019-01-26T03:00:08.417Z,6.97
2019-01-26T03:02:35.689Z,5.90
2019-01-26T03:05:04.407Z,5.77
2019-01-26T03:07:31.674Z,6.03
2019-01-26T03:09:58.956Z,5.57
2019-01-26T03:12:26.289Z,6.80
2019-01-26T03:14:53.806Z,5.53
2019-01-26T03:17:21.082Z,5.87
2019-01-26T03:19:48.321Z,6.40
2019-01-26T03:22:15.666Z,6.70
2019-01-26T03:24:42.947Z,5.97
2019-01-26T03:27:10.193Z,5.87
2019-01-26T03:29:37.726Z,6.20
2019-01-26T03:32:04.971Z,7.13
2019-01-26T03:34:32.243Z,6.63
2019-01-26T03:36:59.486Z,8.03
2019-01-26T03:39:26.749Z,6.50
2019-01-26T03:41:53.991Z,6.60
2019-01-26T03:44:21.257Z,6.83
2019-01-26T03:46:48.574Z,5.47
2019-01-26T03:49:15.857Z,6.43
2019-01-26T03:51:43.166Z,5.67
2019-01-26T03:54:10.439Z,6.10
2019-01-26T03:56:37.947Z,5.47
2019-01-26T03:59:05.290Z,5.30
2019-01-26T04:01:32.787Z,6.17
2019-01-26T04:04:00.313Z,5.53
2019-01-26T04:06:27.630Z,5.90
2019-01-26T04:08:54.897Z,5.73
2019-01-26T04:11:22.242Z,5.80
2019-01-26T04:13:49.489Z,5.40
2019-01-26T04:16:17.022Z,5.27
2019-01-26T04:18:44.274Z,5.40
2019-01-26T04:21:11.554Z,5.30
2019-01-26T04:23:38.808Z,5.07
2019-01-26T04:26:06.083Z,5.37
2019-01-26T04:28:33.350Z,5.57
2019-01-26T04:31:00.618Z,5.33
2019-01-26T04:33:27.891Z,4.93
2019-01-26T04:35:55.382Z,5.43
2019-01-26T04:38:22.658Z,4.70
2019-01-26T04:40:49.898Z,6.37
2019-01-26T04:43:17.175Z,5.53
2019-01-26T04:45:44.439Z,5.03
2019-01-26T04:48:11.933Z,5.60
2019-01-26T04:50:39.208Z,5.90
2019-01-26T04:53:06.453Z,6.00
2019-01-26T04:55:33.725Z,6.30
2019-01-26T04:58:01.234Z,5.63
2019-01-26T05:00:28.577Z,5.30
2019-01-26T05:02:55.818Z,5.30
2019-01-26T05:05:23.159Z,6.17
2019-01-26T05:07:50.434Z,7.10
2019-01-26T05:10:18.887Z,6.00
2019-01-26T05:12:46.437Z,6.47
2019-01-26T05:15:14.515Z,5.53
2019-01-26T05:17:41.827Z,5.93
2019-01-26T05:20:10.774Z,6.17
2019-01-26T05:22:38.015Z,6.77
2019-01-26T05:25:05.447Z,6.53
2019-01-26T05:27:32.717Z,6.27
2019-01-26T05:29:59.964Z,7.00
2019-01-26T05:32:27.313Z,6.20
2019-01-26T05:34:54.558Z,6.97
2019-01-26T05:37:22.042Z,6.20
2019-01-26T05:39:49.313Z,6.77
2019-01-26T05:42:16.626Z,7.20
2019-01-26T05:44:43.906Z,8.17
2019-01-26T05:47:11.185Z,6.90
2019-01-26T05:49:38.433Z,8.27
2019-01-26T05:52:05.669Z,6.23
2019-01-26T05:54:32.941Z,6.13
2019-01-26T05:57:00.189Z,7.50
2019-01-26T05:59:27.725Z,6.17
2019-01-26T06:01:54.981Z,7.40
2019-01-26T06:04:22.249Z,6.90
2019-01-26T06:06:49.510Z,7.13
2019-01-26T06:09:17.057Z,6.90
2019-01-26T06:11:44.553Z,7.50
2019-01-26T06:14:11.794Z,7.10
2019-01-26T06:16:39.065Z,7.10
2019-01-26T06:19:06.616Z,7.13
2019-01-26T06:21:33.933Z,6.50
2019-01-26T06:24:01.417Z,6.63
2019-01-26T06:26:29.102Z,6.67
2019-01-26T06:28:56.527Z,5.77
2019-01-26T06:31:23.802Z,6.67
2019-01-26T06:33:51.069Z,6.40
2019-01-26T06:36:18.316Z,6.10
2019-01-26T06:38:45.585Z,6.20
2019-01-26T06:41:12.825Z,6.77
2019-01-26T06:43:40.142Z,6.43
2019-01-26T06:46:07.941Z,7.23
2019-01-26T06:48:35.273Z,6.10
2019-01-26T06:51:02.545Z,6.63
2019-01-26T06:53:30.448Z,6.47
2019-01-26T06:55:57.900Z,6.93
2019-01-26T06:58:25.274Z,7.40
2019-01-26T07:00:52.635Z,5.90
2019-01-26T07:03:20.794Z,5.93
2019-01-26T07:05:49.898Z,5.50
2019-01-26T07:08:17.647Z,6.80
2019-01-26T07:10:45.021Z,6.33
2019-01-26T07:13:12.343Z,7.17
2019-01-26T07:15:39.697Z,7.47
2019-01-26T07:18:09.663Z,7.10
2019-01-26T07:20:36.253Z,7.37
2019-01-26T07:23:03.573Z,8.30
2019-01-26T07:25:30.845Z,7.23
2019-01-26T07:27:58.117Z,9.23
2019-01-26T07:30:25.832Z,7.90
2019-01-26T07:32:53.076Z,6.10
2019-01-26T07:35:20.522Z,7.50
2019-01-26T07:37:47.800Z,6.37
2019-01-26T07:40:16.577Z,5.50
2019-01-26T07:42:43.844Z,5.80
2019-01-26T07:45:11.836Z,6.20
2019-01-26T07:47:39.106Z,5.90
2019-01-26T07:50:10.790Z,5.70
2019-01-26T07:52:38.369Z,6.70
2019-01-26T07:55:07.090Z,6.73
2019-01-26T07:57:34.617Z,6.17
2019-01-26T08:00:01.859Z,6.07
2019-01-26T08:02:29.651Z,6.30
2019-01-26T08:04:56.897Z,5.00
2019-01-26T08:07:24.138Z,6.60
2019-01-26T08:09:51.418Z,6.40
2019-01-26T08:12:18.662Z,6.13
2019-01-26T08:14:45.901Z,7.50
2019-01-26T08:17:13.434Z,5.67
2019-01-26T08:19:40.934Z,6.70
2019-01-26T08:22:08.208Z,5.73
2019-01-26T08:24:35.457Z,5.77
2019-01-26T08:27:02.997Z,5.40
2019-01-26T08:29:30.368Z,5.30
2019-01-26T08:31:57.670Z,5.80
2019-01-26T08:34:24.946Z,4.70
2019-01-26T08:36:52.270Z,6.20
2019-01-26T08:39:19.762Z,5.50
2019-01-26T08:41:47.029Z,5.00
2019-01-26T08:44:14.305Z,5.30
2019-01-26T08:46:41.805Z,5.30
2019-01-26T08:49:09.243Z,5.50
2019-01-26T08:51:36.716Z,4.37
2019-01-26T08:54:04.086Z,5.50
2019-01-26T08:56:31.358Z,4.87
2019-01-26T08:58:58.631Z,4.60
2019-01-26T09:01:26.126Z,4.50
2019-01-26T09:03:55.270Z,4.33
2019-01-26T09:06:24.195Z,4.13
2019-01-26T09:08:51.515Z,4.67
2019-01-26T09:11:19.057Z,4.50
2019-01-26T09:13:46.373Z,4.60
2019-01-26T09:16:13.717Z,5.00
2019-01-26T09:18:41.041Z,4.23
2019-01-26T09:21:08.312Z,4.67
2019-01-26T09:23:35.553Z,4.90
2019-01-26T09:26:03.141Z,4.80
2019-01-26T09:28:30.453Z,4.67
2019-01-26T09:30:57.804Z,4.43
2019-01-26T09:33:25.109Z,4.00
2019-01-26T09:35:52.417Z,4.40
2019-01-26T09:38:19.794Z,4.07
2019-01-26T09:40:47.293Z,3.90
2019-01-26T09:43:14.603Z,3.70
2019-01-26T09:45:42.144Z,4.23
2019-01-26T09:48:09.481Z,4.37
2019-01-26T09:53:58.073Z,3.70
2019-01-26T09:56:25.557Z,3.63
2019-01-26T09:58:53.096Z,3.73
2019-01-26T10:01:20.456Z,4.23
2019-01-26T10:03:47.702Z,4.67
2019-01-26T10:06:15.010Z,3.60
2019-01-26T10:08:42.291Z,3.80
2019-01-26T10:11:09.784Z,4.30
2019-01-26T10:13:37.054Z,4.93
2019-01-26T10:16:04.549Z,4.30
2019-01-26T10:18:32.082Z,4.20
2019-01-26T10:20:59.399Z,3.97
2019-01-26T10:23:26.750Z,4.00
2019-01-26T10:25:54.003Z,3.90
2019-01-26T10:28:21.351Z,3.70
2019-01-26T10:30:50.489Z,3.60
2019-01-26T10:33:17.914Z,3.87
2019-01-26T10:35:55.543Z,2.90
2019-01-26T10:38:23.070Z,3.20
2019-01-26T10:40:54.935Z,3.40
2019-01-26T10:43:23.914Z,3.53
2019-01-26T10:45:51.263Z,3.57
2019-01-26T10:48:18.802Z,4.10
2019-01-26T10:50:46.050Z,3.07
2019-01-26T10:53:13.338Z,3.43
2019-01-26T10:55:40.848Z,3.50
2019-01-26T10:58:08.177Z,2.90
2019-01-26T11:00:35.536Z,3.70
2019-01-26T11:03:02.782Z,3.87
2019-01-26T11:05:30.196Z,2.63
2019-01-26T11:07:57.438Z,3.10
2019-01-26T11:10:24.853Z,3.03
2019-01-26T11:12:52.103Z,3.60
2019-01-26T11:15:19.454Z,3.03
2019-01-26T11:17:46.968Z,3.20
2019-01-26T11:20:15.261Z,3.40
2019-01-26T11:22:42.754Z,2.90
2019-01-26T11:25:10.897Z,3.50
2019-01-26T11:27:38.418Z,3.03
2019-01-26T11:30:07.446Z,3.07
2019-01-26T11:32:34.982Z,3.50
2019-01-26T11:35:02.229Z,3.57
2019-01-26T11:37:29.499Z,3.67
2019-01-26T11:39:58.402Z,3.20
2019-01-26T11:42:25.679Z,3.20
2019-01-26T11:44:57.618Z,2.73
2019-01-26T11:47:24.938Z,3.40
2019-01-26T11:49:52.742Z,3.00
2019-01-26T11:52:20.030Z,3.27
2019-01-26T11:54:48.911Z,3.80
2019-01-26T11:57:17.698Z,3.33
2019-01-26T11:59:46.583Z,3.50
2019-01-26T12:02:15.470Z,3.47
2019-01-26T12:04:44.480Z,3.37
2019-01-26T12:07:11.721Z,3.57
2019-01-26T12:09:39.034Z,3.17
2019-01-26T12:12:06.378Z,3.53
2019-01-26T12:14:33.617Z,3.10
2019-01-26T12:17:01.302Z,3.50
2019-01-26T12:19:28.570Z,3.23
2019-01-26T12:21:55.865Z,3.47
2019-01-26T12:24:23.108Z,3.57
2019-01-26T12:26:50.429Z,3.80
2019-01-26T12:29:17.785Z,3.40
2019-01-26T12:31:45.030Z,3.53
2019-01-26T12:34:12.307Z,3.33
2019-01-26T12:36:39.579Z,3.20
2019-01-26T12:39:07.762Z,3.80
2019-01-26T12:41:35.027Z,3.63
2019-01-26T12:44:02.525Z,3.00
2019-01-26T12:46:30.062Z,3.67
2019-01-26T12:48:57.582Z,3.70
2019-01-26T12:51:25.130Z,3.50
2019-01-26T12:53:52.378Z,3.43
2019-01-26T12:56:19.622Z,3.30
2019-01-26T12:58:46.886Z,3.77
2019-01-26T13:01:14.166Z,3.37
2019-01-26T13:03:41.514Z,3.40
2019-01-26T13:06:08.940Z,3.63
2019-01-26T13:08:36.491Z,3.23
2019-01-26T13:11:05.353Z,3.30
2019-01-26T13:13:32.620Z,3.50
2019-01-26T13:16:00.162Z,3.67
2019-01-26T13:18:27.700Z,3.57
2019-01-26T13:20:54.945Z,3.53
2019-01-26T13:23:22.226Z,3.40
2019-01-26T13:25:49.709Z,3.53
2019-01-26T13:28:17.245Z,3.90
2019-01-26T13:30:44.489Z,3.73
2019-01-26T13:33:11.731Z,3.83
2019-01-26T13:35:39.968Z,3.20
2019-01-26T13:38:07.534Z,3.60
2019-01-26T13:40:35.589Z,3.80
2019-01-26T13:43:02.903Z,3.37
2019-01-26T13:45:30.155Z,4.27
2019-01-26T13:47:57.426Z,3.97
2019-01-26T13:50:24.939Z,3.93
2019-01-26T13:52:52.229Z,4.23
2019-01-26T13:55:22.929Z,4.03
2019-01-26T13:57:50.518Z,3.37
2019-01-26T14:00:19.230Z,4.30
2019-01-26T14:02:46.754Z,4.00
2019-01-26T14:05:14.033Z,4.00
2019-01-26T14:07:41.278Z,3.87
2019-01-26T14:10:13.499Z,3.37
2019-01-26T14:12:40.762Z,3.70
2019-01-26T14:15:09.734Z,3.40
2019-01-26T14:17:37.246Z,3.20
2019-01-26T14:20:06.032Z,3.30
2019-01-26T14:22:33.703Z,3.20
2019-01-26T14:25:00.944Z,3.60
2019-01-26T14:27:28.213Z,2.97
2019-01-26T14:29:55.761Z,2.63
2019-01-26T14:32:23.316Z,3.20
2019-01-26T14:34:50.820Z,3.00
2019-01-26T14:37:18.086Z,3.27
2019-01-26T14:39:46.321Z,3.47
2019-01-26T14:42:13.662Z,3.20
2019-01-26T14:44:41.206Z,3.20
2019-01-26T14:47:08.725Z,3.00
2019-01-26T14:49:36.301Z,3.07
2019-01-26T14:52:03.610Z,3.40
2019-01-26T14:54:30.963Z,3.10
2019-01-26T14:56:58.282Z,2.87
2019-01-26T14:59:25.859Z,2.50
2019-01-26T15:01:53.225Z,2.67
2019-01-26T15:04:20.769Z,2.70
2019-01-26T15:06:48.206Z,2.60
2019-01-26T15:09:15.664Z,3.00
2019-01-26T15:11:42.933Z,3.80
2019-01-26T15:14:10.204Z,4.90
2019-01-26T15:16:37.804Z,6.00
2019-01-26T15:19:05.045Z,6.03
2019-01-26T15:21:32.603Z,5.90
2019-01-26T15:24:00.549Z,6.10
2019-01-26T15:26:28.437Z,6.23
2019-01-26T15:28:56.029Z,7.50
2019-01-26T15:31:23.935Z,6.63
2019-01-26T15:43:18.325Z,7.57
2019-01-26T15:45:45.817Z,6.80
2019-01-26T15:48:13.101Z,6.80
2019-01-26T15:50:41.955Z,6.37
2019-01-26T15:53:09.565Z,6.03
2019-01-26T15:55:36.833Z,7.10
2019-01-26T15:58:04.754Z,7.80
2019-01-26T16:00:33.351Z,6.40
2019-01-26T16:03:00.910Z,6.90
2019-01-26T16:05:28.411Z,6.60
2019-01-26T16:07:55.846Z,6.70
2019-01-26T16:10:23.873Z,6.27
2019-01-26T16:12:51.286Z,7.03
2019-01-26T16:15:19.699Z,5.40
2019-01-26T16:17:47.059Z,5.77
2019-01-26T16:20:20.289Z,6.33
2019-01-26T16:22:44.744Z,6.27
2019-01-26T16:25:12.160Z,6.00
2019-01-26T16:27:39.400Z,6.50
2019-01-26T16:30:17.015Z,6.60
2019-01-26T16:32:44.334Z,6.33
2019-01-26T16:35:12.777Z,5.63
2019-01-26T16:37:40.049Z,5.10
2019-01-26T16:40:11.798Z,5.90
2019-01-26T16:42:39.105Z,5.07
2019-01-26T16:45:07.890Z,5.60
2019-01-26T16:47:35.162Z,5.30
2019-01-26T16:50:02.490Z,5.10
2019-01-26T16:52:29.829Z,4.10
2019-01-26T16:54:57.704Z,4.57
2019-01-26T16:57:25.927Z,4.70
2019-01-26T16:59:53.274Z,4.10
2019-01-26T17:02:20.798Z,5.30
2019-01-26T17:04:48.115Z,4.87
2019-01-26T17:07:15.659Z,5.10
2019-01-26T17:09:42.903Z,5.70
2019-01-26T17:12:10.245Z,5.63
2019-01-26T17:14:37.529Z,4.77
2019-01-26T17:17:04.776Z,5.83
2019-01-26T17:19:32.018Z,5.90
2019-01-26T17:21:59.535Z,7.23
2019-01-26T17:24:26.858Z,6.33
2019-01-26T17:26:54.133Z,6.57
2019-01-26T17:29:21.410Z,8.70
2019-01-26T17:31:48.723Z,7.40
2019-01-26T17:34:16.070Z,7.47
2019-01-26T17:36:43.345Z,7.47
2019-01-26T17:39:10.595Z,7.07
2019-01-26T17:41:37.858Z,7.33
2019-01-26T17:44:05.102Z,8.20
2019-01-26T17:46:32.630Z,7.80
2019-01-26T17:48:59.898Z,7.63
2019-01-26T17:51:27.161Z,8.17
2019-01-26T17:53:54.441Z,6.27
2019-01-26T17:56:21.685Z,6.37
2019-01-26T17:58:48.931Z,6.57
2019-01-26T18:01:16.436Z,6.27
2019-01-26T18:03:43.783Z,5.70
2019-01-26T18:06:11.026Z,6.13
2019-01-26T18:08:38.299Z,6.00
2019-01-26T18:11:05.569Z,5.77
2019-01-26T18:13:32.834Z,6.00
2019-01-26T18:16:00.085Z,5.60
2019-01-26T18:18:27.617Z,5.77
2019-01-26T18:20:54.865Z,6.80
2019-01-26T18:23:23.765Z,5.90
2019-01-26T18:25:51.197Z,5.60
2019-01-26T18:28:18.690Z,5.37
2019-01-26T18:30:46.002Z,7.10
2019-01-26T18:33:13.905Z,6.00
2019-01-26T18:35:41.181Z,6.60
2019-01-26T18:38:08.493Z,7.47
2019-01-26T18:40:35.771Z,7.10
2019-01-26T18:43:14.895Z,7.90
2019-01-26T18:45:44.989Z,6.53
2019-01-26T18:48:12.326Z,7.37
2019-01-26T18:50:41.487Z,7.00
2019-01-26T18:53:08.759Z,6.77
2019-01-26T18:55:36.002Z,7.40
2019-01-26T18:58:03.626Z,5.53
2019-01-26T19:00:35.259Z,6.10
2019-01-26T19:03:06.698Z,6.17
2019-01-26T19:05:35.558Z,6.00
2019-01-26T19:08:03.113Z,5.73
2019-01-26T19:10:30.383Z,5.70
2019-01-26T19:12:57.621Z,6.83
2019-01-26T19:15:24.965Z,7.10
2019-01-26T19:17:52.474Z,6.40
2019-01-26T19:20:20.137Z,6.70
2019-01-26T19:22:47.659Z,7.50
2019-01-26T19:25:16.622Z,8.20
2019-01-26T19:27:45.710Z,8.53
2019-01-26T19:30:14.468Z,7.97
2019-01-26T19:32:41.797Z,7.90
2019-01-26T19:35:09.651Z,8.70
2019-01-26T19:37:37.205Z,7.70
2019-01-26T19:40:06.106Z,8.80
2019-01-26T19:42:33.358Z,9.00
2019-01-26T19:45:00.863Z,7.83
2019-01-26T19:47:28.210Z,8.37
2019-01-26T19:49:55.450Z,9.70
2019-01-26T19:52:22.723Z,8.40
2019-01-26T19:54:50.038Z,9.87
2019-01-26T19:57:17.309Z,8.10
2019-01-26T19:59:44.880Z,9.17
2019-01-26T20:02:12.179Z,10.57
2019-01-26T20:04:39.429Z,11.90
2019-01-26T20:07:06.763Z,10.30
2019-01-26T20:09:34.035Z,8.93
2019-01-26T20:12:01.361Z,10.43
2019-01-26T20:14:28.703Z,10.37
2019-01-26T20:16:56.026Z,9.80
2019-01-26T20:19:23.626Z,10.30
2019-01-26T20:21:50.947Z,9.23
2019-01-26T20:24:18.446Z,9.80
2019-01-26T20:26:45.734Z,9.83
2019-01-26T20:29:12.983Z,9.60
2019-01-26T20:31:40.262Z,9.33
2019-01-26T20:34:07.540Z,10.37
2019-01-26T20:36:35.050Z,9.60
2019-01-26T20:39:02.594Z,8.77
2019-01-26T20:41:29.922Z,9.20
2019-01-26T20:43:57.186Z,8.60
2019-01-26T20:46:25.019Z,9.43
2019-01-26T20:48:52.525Z,8.77
2019-01-26T20:51:24.881Z,8.50
2019-01-26T20:53:48.929Z,8.37
2019-01-26T20:56:16.182Z,10.67
2019-01-26T20:58:43.790Z,10.07
2019-01-26T21:01:11.137Z,9.87
2019-01-26T21:03:38.692Z,10.57
2019-01-26T21:06:06.027Z,9.97
2019-01-26T21:08:33.301Z,9.60
2019-01-26T21:11:00.582Z,9.00
2019-01-26T21:13:28.103Z,7.90
2019-01-26T21:15:55.376Z,8.50
2019-01-26T21:18:22.833Z,10.27
2019-01-26T21:20:50.102Z,8.73
2019-01-26T21:23:17.631Z,10.03
2019-01-26T21:25:44.907Z,9.10
2019-01-26T21:28:12.176Z,8.37
2019-01-26T21:30:39.458Z,8.37
2019-01-26T21:33:06.703Z,8.07
2019-01-26T21:35:34.062Z,10.10
2019-01-26T21:38:01.301Z,8.33
2019-01-26T21:40:29.534Z,8.00
2019-01-26T21:42:57.123Z,6.97
2019-01-26T21:45:24.436Z,6.77
2019-01-26T21:47:51.882Z,6.50
2019-01-26T21:50:20.196Z,5.10
2019-01-26T21:52:47.477Z,5.20
2019-01-26T21:55:15.198Z,5.37
2019-01-26T21:57:42.438Z,5.70
2019-01-26T22:00:11.241Z,6.77
2019-01-26T22:02:38.589Z,5.80
2019-01-26T22:05:07.138Z,6.40
2019-01-26T22:07:34.386Z,6.83
2019-01-26T22:10:01.633Z,5.97
2019-01-26T22:12:28.902Z,6.10
2019-01-26T22:14:56.328Z,5.97
2019-01-26T22:17:23.619Z,4.73
2019-01-26T22:19:50.862Z,5.67
2019-01-26T22:22:18.131Z,6.00
2019-01-26T22:24:45.382Z,5.20
2019-01-26T22:27:12.678Z,6.47
2019-01-26T22:29:40.019Z,5.20
2019-01-26T22:32:07.348Z,6.53
2019-01-26T22:34:34.669Z,6.20
2019-01-26T22:37:02.218Z,5.40
2019-01-26T22:39:29.477Z,6.37
2019-01-26T22:41:56.758Z,5.40
2019-01-26T22:44:23.997Z,6.30
2019-01-26T22:46:51.272Z,6.47
2019-01-26T22:49:18.762Z,6.00
2019-01-26T22:51:46.036Z,6.00
2019-01-26T22:54:13.312Z,6.60
2019-01-26T22:56:40.554Z,7.47
2019-01-26T22:59:07.826Z,6.60
2019-01-26T23:01:35.541Z,5.90
2019-01-26T23:04:04.529Z,7.40
2019-01-26T23:06:33.625Z,6.70
2019-01-26T23:09:02.734Z,7.20
2019-01-26T23:11:31.514Z,6.60
2019-01-26T23:14:16.896Z,6.03
2019-01-26T23:16:57.568Z,6.30
2019-01-26T23:19:29.446Z,6.30
2019-01-26T23:22:14.543Z,6.80
2019-01-26T23:24:43.360Z,6.10
2019-01-26T23:27:28.705Z,5.60
2019-01-26T23:29:57.515Z,6.10
2019-01-26T23:32:24.842Z,5.97
2019-01-26T23:34:52.114Z,5.63
2019-01-26T23:37:19.456Z,6.73
2019-01-26T23:39:46.999Z,7.50
2019-01-26T23:42:14.494Z,6.50
2019-01-26T23:44:41.991Z,6.67
2019-01-26T23:47:09.270Z,8.43
2019-01-26T23:49:36.763Z,6.50
2019-01-26T23:52:04.095Z,7.40
2019-01-26T23:54:31.372Z,6.90
2019-01-26T23:56:58.650Z,7.03
2019-01-26T23:59:25.889Z,6.87
